createdAt,value
2019-02-05T05:04:25.533Z,5.67
2019-02-05T05:06:51.935Z,6.33
2019-02-05T05:09:18.364Z,3.52
2019-02-05T05:11:44.792Z,5.30
2019-02-05T05:14:11.291Z,5.97
2019-02-05T05:16:37.689Z,5.35
2019-02-05T05:19:04.131Z,5.55
2019-02-05T05:21:30.707Z,11.35
2019-02-05T05:23:57.342Z,12.05
2019-02-05T05:26:23.735Z,11.73
2019-02-05T05:28:50.140Z,9.73
2019-02-05T05:31:16.572Z,12.25
2019-02-05T05:33:43.057Z,13.40
2019-02-05T05:36:09.463Z,13.72
2019-02-05T05:38:35.880Z,15.80
2019-02-05T05:41:02.285Z,14.85
2019-02-05T05:43:28.720Z,16.70
2019-02-05T05:45:55.323Z,10.63
2019-02-05T05:48:21.731Z,16.42
2019-02-05T05:50:48.433Z,21.25
2019-02-05T05:53:14.940Z,803.75
2019-02-05T05:55:41.372Z,540.47
2019-02-05T05:58:07.781Z,490.12
2019-02-05T06:00:34.213Z,408.15
2019-02-05T06:03:00.613Z,401.00
2019-02-05T06:05:27.325Z,381.85
2019-02-05T06:07:53.776Z,385.95
2019-02-05T06:10:20.187Z,340.05
2019-02-05T06:12:47.081Z,315.15
2019-02-05T06:15:13.488Z,286.67
2019-02-05T06:17:39.892Z,292.52
2019-02-05T06:20:06.311Z,262.98
2019-02-05T06:22:33.002Z,263.07
2019-02-05T06:24:59.419Z,250.87
2019-02-05T06:27:26.135Z,227.53
2019-02-05T06:29:52.585Z,240.82
2019-02-05T06:32:18.996Z,210.23
2019-02-05T06:34:45.414Z,227.35
2019-02-05T06:37:11.864Z,201.05
2019-02-05T06:39:38.279Z,196.45
2019-02-05T06:42:04.695Z,181.15
2019-02-05T06:44:31.231Z,174.70
2019-02-05T06:46:57.639Z,183.12
2019-02-05T06:49:24.355Z,170.92
2019-02-05T06:51:50.788Z,167.37
2019-02-05T06:54:17.232Z,153.80
2019-02-05T06:56:43.641Z,158.05
2019-02-05T06:59:10.066Z,157.25
2019-02-05T07:01:36.467Z,153.47
2019-02-05T07:04:02.891Z,143.40
2019-02-05T07:06:29.339Z,149.57
2019-02-05T07:08:55.752Z,141.77
2019-02-05T07:11:22.371Z,149.65
2019-02-05T07:13:48.844Z,137.45
2019-02-05T07:16:15.248Z,136.03
2019-02-05T07:18:41.660Z,129.78
2019-02-05T07:21:08.091Z,130.80
2019-02-05T07:23:34.542Z,121.67
2019-02-05T07:26:00.952Z,127.75
2019-02-05T07:28:27.385Z,121.02
2019-02-05T07:30:53.863Z,124.27
2019-02-05T07:33:20.281Z,114.17
2019-02-05T07:35:46.719Z,119.55
2019-02-05T07:38:13.124Z,116.17
2019-02-05T07:40:39.535Z,116.73
2019-02-05T07:43:06.051Z,103.67
2019-02-05T07:45:32.490Z,109.92
2019-02-05T07:47:58.900Z,111.55
2019-02-05T07:50:25.340Z,104.45
2019-02-05T07:52:51.752Z,98.80
2019-02-05T07:55:18.169Z,99.22
2019-02-05T07:57:44.810Z,100.40
2019-02-05T08:00:11.219Z,99.95
2019-02-05T08:02:37.695Z,95.38
2019-02-05T08:05:04.129Z,101.67
2019-02-05T08:07:30.538Z,98.25
2019-02-05T08:09:56.959Z,94.22
2019-02-05T08:12:23.465Z,91.25
2019-02-05T08:14:49.880Z,85.95
2019-02-05T08:17:16.292Z,89.20
2019-02-05T08:19:42.736Z,88.65
2019-02-05T08:22:09.699Z,80.77
2019-02-05T08:24:36.163Z,76.90
2019-02-05T08:27:02.599Z,83.70
2019-02-05T08:29:29.009Z,75.95
2019-02-05T08:31:55.431Z,84.77
2019-02-05T08:34:21.865Z,78.83
2019-02-05T08:36:48.279Z,75.75
2019-02-05T08:39:17.802Z,71.67
2019-02-05T08:41:42.789Z,77.72
2019-02-05T08:44:09.604Z,76.25
2019-02-05T08:46:36.021Z,73.80
2019-02-05T08:49:02.452Z,67.47
2019-02-05T08:51:28.856Z,71.75
2019-02-05T08:53:55.368Z,73.52
2019-02-05T08:56:21.807Z,70.22
2019-02-05T08:58:48.224Z,68.70
2019-02-05T09:01:14.680Z,67.97
2019-02-05T09:03:41.236Z,66.12
2019-02-05T09:06:07.651Z,63.28
2019-02-05T09:08:34.365Z,63.78
2019-02-05T09:11:00.792Z,61.40
2019-02-05T09:13:27.252Z,61.98
2019-02-05T09:15:53.656Z,67.08
2019-02-05T09:18:20.084Z,61.53
2019-02-05T09:20:46.501Z,57.78
2019-02-05T09:23:14.355Z,56.00
2019-02-05T09:25:40.937Z,55.40
2019-02-05T09:28:07.351Z,53.70
2019-02-05T09:30:34.069Z,57.50
2019-02-05T09:33:00.503Z,60.08
2019-02-05T09:35:26.901Z,50.85
2019-02-05T09:37:53.343Z,58.25
2019-02-05T09:40:19.749Z,52.30
2019-02-05T09:42:46.200Z,47.53
2019-02-05T09:45:12.638Z,49.58
2019-02-05T09:47:39.140Z,50.08
2019-02-05T09:50:05.563Z,48.42
2019-02-05T09:52:32.375Z,43.20
2019-02-05T09:54:58.910Z,44.03
2019-02-05T09:57:25.395Z,44.75
2019-02-05T09:59:51.829Z,47.88
2019-02-05T10:02:18.296Z,40.88
2019-02-05T10:04:44.700Z,43.00
2019-02-05T10:07:11.136Z,43.55
2019-02-05T10:09:37.651Z,40.35
2019-02-05T10:12:04.125Z,41.25
2019-02-05T10:14:30.864Z,40.80
2019-02-05T10:16:57.277Z,39.38
2019-02-05T10:19:23.697Z,41.13
2019-02-05T10:21:50.123Z,40.00
2019-02-05T10:24:16.528Z,38.30
2019-02-05T10:26:42.939Z,38.63
2019-02-05T10:29:09.428Z,37.70
2019-02-05T10:31:35.838Z,34.43
2019-02-05T10:34:02.251Z,35.83
2019-02-05T10:36:28.985Z,36.85
2019-02-05T10:38:55.394Z,31.85
2019-02-05T10:41:21.812Z,32.58
2019-02-05T10:43:48.316Z,31.62
2019-02-05T10:46:14.722Z,33.98
2019-02-05T10:48:41.132Z,30.65
2019-02-05T10:51:07.556Z,34.63
2019-02-05T10:53:34.021Z,30.57
2019-02-05T10:56:00.433Z,32.58
2019-02-05T10:58:27.071Z,33.02
2019-02-05T11:00:53.489Z,32.50
2019-02-05T11:03:19.966Z,29.75
2019-02-05T11:05:46.416Z,29.72
2019-02-05T11:08:12.818Z,29.20
2019-02-05T11:10:39.231Z,29.30
2019-02-05T11:13:05.731Z,30.60
2019-02-05T11:15:32.141Z,27.62
2019-02-05T11:17:58.559Z,28.35
2019-02-05T11:20:25.404Z,26.40
2019-02-05T11:22:51.850Z,25.30
2019-02-05T11:25:18.277Z,25.27
2019-02-05T11:27:45.926Z,26.68
2019-02-05T11:30:20.093Z,25.37
2019-02-05T11:32:40.663Z,25.77
2019-02-05T11:35:07.090Z,23.80
2019-02-05T11:37:33.503Z,24.90
2019-02-05T11:39:59.912Z,23.25
2019-02-05T11:42:26.736Z,25.57
2019-02-05T11:44:53.144Z,23.40
2019-02-05T11:47:19.560Z,21.55
2019-02-05T11:49:46.000Z,23.73
2019-02-05T11:52:12.437Z,21.48
2019-02-05T11:54:38.869Z,23.55
2019-02-05T11:57:05.301Z,20.15
2019-02-05T11:59:31.703Z,21.42
2019-02-05T12:01:58.172Z,20.60
2019-02-05T12:04:24.916Z,21.12
2019-02-05T12:06:51.343Z,20.08
2019-02-05T12:09:17.760Z,18.00
2019-02-05T12:11:44.248Z,19.17
2019-02-05T12:14:10.659Z,19.87
2019-02-05T12:16:37.146Z,17.00
2019-02-05T12:19:03.571Z,19.15
2019-02-05T12:21:29.993Z,17.95
2019-02-05T12:23:56.396Z,16.27
2019-02-05T12:26:22.832Z,19.60
2019-02-05T12:28:49.604Z,15.40
2019-02-05T12:31:16.017Z,12.35
2019-02-05T12:33:42.447Z,15.55
2019-02-05T12:36:08.961Z,16.67
2019-02-05T12:38:35.389Z,15.98
2019-02-05T12:41:01.831Z,14.03
2019-02-05T12:43:28.264Z,17.07
2019-02-05T12:45:54.673Z,14.83
2019-02-05T12:48:21.104Z,14.25
2019-02-05T12:50:47.523Z,14.87
2019-02-05T12:53:14.007Z,13.75
2019-02-05T12:55:40.432Z,14.05
2019-02-05T12:58:06.850Z,13.58
2019-02-05T13:00:33.287Z,13.43
2019-02-05T13:02:59.756Z,12.75
2019-02-05T13:05:26.204Z,14.03
2019-02-05T13:07:52.598Z,14.80
2019-02-05T13:10:19.299Z,13.83
2019-02-05T13:12:45.792Z,11.75
2019-02-05T13:15:12.224Z,12.53
2019-02-05T13:17:38.645Z,12.75
2019-02-05T13:20:05.059Z,11.20
2019-02-05T13:22:31.556Z,12.33
2019-02-05T13:24:57.969Z,11.83
2019-02-05T13:27:24.372Z,10.60
2019-02-05T13:29:51.095Z,12.00
2019-02-05T13:32:17.563Z,10.75
2019-02-05T13:34:43.970Z,11.60
2019-02-05T13:37:10.420Z,9.80
2019-02-05T13:39:36.831Z,10.03
2019-02-05T13:42:03.306Z,11.38
2019-02-05T13:44:29.751Z,10.82
2019-02-05T13:46:56.355Z,9.70
2019-02-05T13:49:22.775Z,10.50
2019-02-05T13:51:49.276Z,11.12
2019-02-05T13:54:15.683Z,10.35
2019-02-05T13:56:42.094Z,9.18
2019-02-05T13:59:08.549Z,9.10
2019-02-05T14:01:34.981Z,9.40
2019-02-05T14:04:01.397Z,9.60
2019-02-05T14:06:27.823Z,7.92
2019-02-05T14:08:54.507Z,7.92
2019-02-05T14:11:20.932Z,8.85
2019-02-05T14:13:47.362Z,7.17
2019-02-05T14:16:13.763Z,7.78
2019-02-05T14:18:40.167Z,7.72
2019-02-05T14:21:06.619Z,8.18
2019-02-05T14:23:33.032Z,8.00
2019-02-05T14:25:59.745Z,8.20
2019-02-05T14:28:26.483Z,7.35
2019-02-05T14:30:52.897Z,7.22
2019-02-05T14:33:19.324Z,8.03
2019-02-05T14:35:45.752Z,9.58
2019-02-05T14:38:12.160Z,8.30
2019-02-05T14:40:38.564Z,7.72
2019-02-05T14:43:05.001Z,6.92
2019-02-05T14:45:31.425Z,7.90
2019-02-05T14:47:58.143Z,7.15
2019-02-05T14:50:24.579Z,6.67
2019-02-05T14:52:51.067Z,8.23
2019-02-05T14:55:17.431Z,6.20
2019-02-05T14:57:43.859Z,8.10
2019-02-05T15:00:10.282Z,7.40
2019-02-05T15:02:36.779Z,6.47
2019-02-05T15:05:03.183Z,5.55
2019-02-05T15:07:29.907Z,7.55
2019-02-05T15:09:56.327Z,6.10
2019-02-05T15:12:22.795Z,7.05
2019-02-05T15:14:49.269Z,5.95
2019-02-05T15:17:15.668Z,6.17
2019-02-05T15:19:42.081Z,6.37
2019-02-05T15:22:08.664Z,7.42
2019-02-05T15:24:37.460Z,7.03
2019-02-05T15:27:03.140Z,5.75
2019-02-05T15:29:29.543Z,5.22
2019-02-05T15:31:56.039Z,5.80
2019-02-05T15:34:22.463Z,6.22
2019-02-05T15:36:48.884Z,5.72
2019-02-05T15:39:15.306Z,6.87
2019-02-05T15:41:41.751Z,6.28
2019-02-05T15:44:08.188Z,4.95
2019-02-05T15:46:34.595Z,5.03
2019-02-05T15:49:01.018Z,5.58
2019-02-05T15:51:27.516Z,6.53
2019-02-05T15:53:53.931Z,6.60
2019-02-05T15:56:20.351Z,7.03
2019-02-05T15:58:46.756Z,5.80
2019-02-05T16:01:13.252Z,6.03
2019-02-05T16:03:40.072Z,6.25
2019-02-05T16:06:06.484Z,5.50
2019-02-05T16:08:32.908Z,5.42
2019-02-05T16:10:59.319Z,6.75
2019-02-05T16:13:25.764Z,6.08
2019-02-05T16:15:52.177Z,6.22
2019-02-05T16:18:18.589Z,6.45
2019-02-05T16:20:45.008Z,6.40
2019-02-05T16:23:11.414Z,6.40
2019-02-05T16:25:37.935Z,6.08
2019-02-05T16:28:04.356Z,6.75
2019-02-05T16:30:30.797Z,7.58
2019-02-05T16:32:57.216Z,6.28
2019-02-05T16:35:23.628Z,5.33
2019-02-05T16:37:50.051Z,6.40
2019-02-05T16:40:16.467Z,6.10
2019-02-05T16:42:42.941Z,6.42
2019-02-05T16:45:09.753Z,5.08
2019-02-05T16:47:36.155Z,6.55
2019-02-05T16:50:02.571Z,6.45
2019-02-05T16:52:29.063Z,5.08
2019-02-05T16:54:55.487Z,6.90
2019-02-05T16:57:21.908Z,7.03
2019-02-05T16:59:48.338Z,6.40
2019-02-05T17:02:14.789Z,6.33
2019-02-05T17:04:41.503Z,6.00
2019-02-05T17:07:07.925Z,6.58
2019-02-05T17:09:34.320Z,6.15
2019-02-05T17:12:00.767Z,6.08
2019-02-05T17:14:27.193Z,7.47
2019-02-05T17:16:53.600Z,5.90
2019-02-05T17:19:20.031Z,6.62
2019-02-05T17:21:46.472Z,6.25
2019-02-05T17:24:13.195Z,7.05
2019-02-05T17:26:39.611Z,7.33
2019-02-05T17:29:06.037Z,6.05
2019-02-05T17:31:32.513Z,5.83
2019-02-05T17:33:58.935Z,6.90
2019-02-05T17:36:25.347Z,6.58
2019-02-05T17:38:51.771Z,6.33
2019-02-05T17:41:18.280Z,7.55
2019-02-05T17:43:45.090Z,8.03
2019-02-05T17:46:11.505Z,7.90
2019-02-05T17:48:37.928Z,6.75
2019-02-05T17:51:04.406Z,6.65
2019-02-05T17:53:30.806Z,6.75
2019-02-05T17:55:57.203Z,8.68
2019-02-05T17:58:23.633Z,7.70
2019-02-05T18:00:50.154Z,8.48
2019-02-05T18:03:16.952Z,8.08
2019-02-05T18:05:43.396Z,7.42
2019-02-05T18:08:09.819Z,8.43
2019-02-05T18:10:36.241Z,8.13
2019-02-05T18:13:02.653Z,7.83
2019-02-05T18:15:29.052Z,7.47
2019-02-05T18:17:55.468Z,9.43
2019-02-05T18:20:21.883Z,10.05
2019-02-05T18:22:48.744Z,7.37
2019-02-05T18:25:15.148Z,8.30
2019-02-05T18:27:41.703Z,9.38
2019-02-05T18:30:08.118Z,7.35
2019-02-05T18:32:34.596Z,9.53
2019-02-05T18:35:01.026Z,10.50
2019-02-05T18:37:27.429Z,9.25
2019-02-05T18:39:53.841Z,8.30
2019-02-05T18:42:20.755Z,9.08
2019-02-05T18:56:53.341Z,21.93
2019-02-05T19:05:01.177Z,13.72
2019-02-05T19:07:27.343Z,15.48
2019-02-05T19:09:53.497Z,15.55
2019-02-05T19:12:20.035Z,11.22
2019-02-05T19:14:46.215Z,12.07
2019-02-05T19:17:12.544Z,15.32
2019-02-05T19:19:38.734Z,15.65
2019-02-05T19:22:04.901Z,17.67
2019-02-05T19:24:31.042Z,12.95
2019-02-05T19:26:57.203Z,19.48
2019-02-05T19:29:23.360Z,20.77
2019-02-05T19:31:50.216Z,29.60
2019-02-05T19:34:16.375Z,40.23
2019-02-05T19:36:42.533Z,32.85
2019-02-05T19:39:08.700Z,35.23
2019-02-05T19:41:34.894Z,28.50
2019-02-05T19:44:01.085Z,26.50
2019-02-05T19:46:27.327Z,21.55
2019-02-05T19:48:53.518Z,31.82
2019-02-05T19:51:19.738Z,21.90
2019-02-05T19:53:45.905Z,23.22
2019-02-05T19:56:14.552Z,18.77
2019-02-05T19:58:39.950Z,27.58
2019-02-05T20:01:06.212Z,23.00
2019-02-05T20:03:38.943Z,23.85
2019-02-05T20:06:00.242Z,16.77
2019-02-05T20:08:26.960Z,21.15
2019-02-05T20:10:53.240Z,21.25
2019-02-05T20:13:19.444Z,24.20
2019-02-05T20:15:45.606Z,29.75
2019-02-05T20:18:12.275Z,28.90
2019-02-05T20:20:38.938Z,19.57
2019-02-05T20:23:05.662Z,18.75
2019-02-05T20:25:32.005Z,16.80
2019-02-05T20:27:58.305Z,26.77
2019-02-05T20:30:24.777Z,17.98
2019-02-05T20:32:51.089Z,23.45
2019-02-05T20:35:17.249Z,20.88
2019-02-05T20:37:43.416Z,22.90
2019-02-05T20:40:09.880Z,21.07
2019-02-05T20:42:36.103Z,13.80
2019-02-05T20:45:02.281Z,19.92
2019-02-05T20:47:28.442Z,27.13
2019-02-05T20:49:54.611Z,23.52
2019-02-05T20:52:20.763Z,22.17
2019-02-05T20:54:47.076Z,27.13
2019-02-05T20:57:13.236Z,19.48
2019-02-05T20:59:39.416Z,18.30
2019-02-05T21:02:05.742Z,17.40
2019-02-05T21:04:35.282Z,20.52
2019-02-05T21:06:59.960Z,20.55
2019-02-05T21:09:26.117Z,21.05
2019-02-05T21:11:52.513Z,20.43
2019-02-05T21:14:18.678Z,21.33
2019-02-05T21:16:44.840Z,24.07
2019-02-05T21:19:11.026Z,20.50
2019-02-05T21:21:37.253Z,24.23
2019-02-05T21:24:03.904Z,19.95
2019-02-05T21:26:30.070Z,24.47
2019-02-05T21:28:56.250Z,15.50
2019-02-05T21:31:22.481Z,20.45
2019-02-05T21:33:48.690Z,21.23
2019-02-05T21:36:14.852Z,16.80
2019-02-05T21:38:41.006Z,22.30
2019-02-05T21:41:07.330Z,12.68
2019-02-05T21:43:33.488Z,15.93
2019-02-05T21:46:01.104Z,17.30
2019-02-05T21:48:27.517Z,16.07
2019-02-05T21:50:53.743Z,18.25
2019-02-05T21:53:19.909Z,16.27
2019-02-05T21:55:46.064Z,16.70
2019-02-05T21:58:12.635Z,14.80
2019-02-05T22:00:39.071Z,19.80
2019-02-05T22:03:05.240Z,15.50
2019-02-05T22:05:31.439Z,11.90
2019-02-05T22:07:57.978Z,14.03
2019-02-05T22:10:24.274Z,12.15
2019-02-05T22:12:50.458Z,13.75
2019-02-05T22:15:16.998Z,11.28
2019-02-05T22:17:43.163Z,15.95
2019-02-05T22:20:09.427Z,15.45
2019-02-05T22:22:35.592Z,13.53
2019-02-05T22:25:02.148Z,18.12
2019-02-05T22:27:28.339Z,14.03
2019-02-05T22:29:54.573Z,11.75
2019-02-05T22:32:21.037Z,14.35
2019-02-05T22:34:47.225Z,14.47
2019-02-05T22:37:13.447Z,15.05
2019-02-05T22:39:39.950Z,14.73
2019-02-05T22:42:06.152Z,15.15
2019-02-05T22:44:32.404Z,15.60
2019-02-05T22:46:58.546Z,12.10
2019-02-05T22:49:24.752Z,10.58
2019-02-05T22:51:51.222Z,19.17
2019-02-05T22:54:17.381Z,11.25
2019-02-05T22:56:43.990Z,15.70
2019-02-05T22:59:10.500Z,12.07
2019-02-05T23:01:36.683Z,11.00
2019-02-05T23:04:03.252Z,12.37
2019-02-05T23:06:29.415Z,16.17
2019-02-05T23:08:55.958Z,10.50
2019-02-05T23:11:22.210Z,14.95
2019-02-05T23:13:48.373Z,14.73
2019-02-05T23:16:14.527Z,13.08
2019-02-05T23:18:40.700Z,13.85
2019-02-05T23:21:06.897Z,14.87
2019-02-05T23:23:33.061Z,11.78
2019-02-05T23:25:59.251Z,14.53
2019-02-05T23:28:25.416Z,10.93
2019-02-05T23:30:51.914Z,15.15
2019-02-05T23:33:18.092Z,14.65
2019-02-05T23:35:44.259Z,12.50
2019-02-05T23:38:10.424Z,10.32
2019-02-05T23:40:36.656Z,10.13
2019-02-05T23:43:02.814Z,12.10
2019-02-05T23:45:28.982Z,11.28
2019-02-05T23:47:55.250Z,12.40
2019-02-05T23:50:21.660Z,13.18
2019-02-05T23:52:47.812Z,11.35
2019-02-05T23:55:14.003Z,15.72
2019-02-05T23:57:40.167Z,10.82
